METAR Data
IDs: Format: Raw Decoded Include TAF

Data at: 1601 UTC 21 Sep 2018

KPAN 211555Z AUTO 00000KT 10SM CLR 23/11 A3024 RMK AO2
KPAN 211535Z AUTO 00000KT 10SM CLR 23/11 A3023 RMK AO2
KPAN 211515Z AUTO 00000KT 10SM CLR 21/11 A3023 RMK AO2
KPAN 211455Z AUTO 00000KT 10SM CLR 19/10 A3023 RMK AO2
KPAN 211435Z AUTO 00000KT 10SM CLR 17/10 A3022 RMK AO2
KPAN 211415Z AUTO 00000KT 10SM CLR 16/10 A3022 RMK AO2
KPAN 211355Z AUTO 00000KT 10SM CLR 15/10 A3021 RMK AO2
KPAN 211335Z AUTO 00000KT 10SM CLR 15/09 A3020 RMK AO2
KPAN 211315Z AUTO 00000KT 10SM CLR 14/10 A3020 RMK AO2
KPAN 211255Z AUTO 33003KT 10SM CLR 14/10 A3019 RMK AO2
KPAN 211235Z AUTO 00000KT 10SM CLR 15/10 A3019 RMK AO2
KPAN 211215Z AUTO 00000KT 10SM CLR 15/10 A3018 RMK AO2
KPAN 211155Z AUTO 00000KT 10SM CLR 15/10 A3018 RMK AO2
KPAN 211135Z AUTO 00000KT 10SM CLR 15/10 A3018 RMK AO2
KPAN 211115Z AUTO 00000KT 10SM CLR 16/10 A3017 RMK AO2
KPAN 211055Z AUTO 00000KT 10SM CLR 16/10 A3017 RMK AO2
KPAN 211035Z AUTO 00000KT 10SM CLR 16/10 A3017 RMK AO2
KPAN 211015Z AUTO 00000KT 10SM CLR 16/10 A3016 RMK AO2
KPAN 210955Z AUTO 00000KT 10SM CLR 16/10 A3016 RMK AO2
KPAN 210935Z AUTO 00000KT 10SM CLR 16/10 A3016 RMK AO2
KPAN 210915Z AUTO 00000KT 10SM CLR 16/10 A3016 RMK AO2
KPAN 210855Z AUTO 00000KT 10SM CLR 16/10 A3016 RMK AO2
KPAN 210835Z AUTO 00000KT 10SM CLR 17/09 A3016 RMK AO2
KPAN 210815Z AUTO 00000KT 10SM CLR 17/09 A3016 RMK AO2
KPAN 210755Z AUTO 00000KT 10SM CLR 17/09 A3015 RMK AO2
KPAN 210735Z AUTO 00000KT 10SM CLR 17/10 A3015 RMK AO2
KPAN 210715Z AUTO 00000KT 10SM CLR 18/10 A3015 RMK AO2
KPAN 210655Z AUTO 00000KT 10SM CLR 18/10 A3015 RMK AO2
KPAN 210635Z AUTO 00000KT 10SM CLR 19/10 A3015 RMK AO2
KPAN 210615Z AUTO 09003KT 10SM CLR 20/10 A3015 RMK AO2
KPAN 210555Z AUTO 09004KT 10SM CLR 20/10 A3015 RMK AO2
KPAN 210535Z AUTO 09003KT 10SM CLR 21/10 A3015 RMK AO2
KPAN 210515Z AUTO 00000KT 10SM CLR 20/11 A3015 RMK AO2
KPAN 210455Z AUTO 10003KT 10SM CLR 20/11 A3014 RMK AO2
KPAN 210435Z AUTO 00000KT 10SM CLR 21/11 A3014 RMK AO2
KPAN 210415Z AUTO 00000KT 10SM CLR 20/10 A3013 RMK AO2
KPAN 210355Z AUTO 00000KT 10SM CLR 22/11 A3013 RMK AO2
KPAN 210335Z AUTO 00000KT 10SM CLR 21/10 A3012 RMK AO2
KPAN 210315Z AUTO 00000KT 10SM CLR 22/09 A3011 RMK AO2
KPAN 210255Z AUTO 00000KT 10SM CLR 23/10 A3009 RMK AO2
KPAN 210235Z AUTO 27006KT 10SM CLR 23/10 A3008 RMK AO2
KPAN 210215Z AUTO 26005KT 10SM FEW090 23/08 A3007 RMK AO2
KPAN 210155Z AUTO 26007G12KT 10SM CLR 24/08 A3006 RMK AO2
KPAN 210135Z AUTO 25007G12KT 10SM CLR 25/07 A3005 RMK AO2
KPAN 210115Z AUTO 25008KT 10SM CLR 26/07 A3005 RMK AO2
KPAN 210055Z AUTO 25009KT 10SM CLR 27/06 A3004 RMK AO2
KPAN 210035Z AUTO 25008KT 10SM CLR 27/05 A3004 RMK AO2
KPAN 210015Z AUTO 24009G14KT 10SM CLR 27/06 A3003 RMK AO2
KPAN 202355Z AUTO 26008G16KT 10SM FEW090 28/06 A3003 RMK AO2
KPAN 202335Z AUTO 28010KT 10SM CLR 28/06 A3002 RMK AO2
KPAN 202315Z AUTO 27010KT 240V300 10SM CLR 28/05 A3003 RMK AO2
KPAN 202255Z AUTO 28008G17KT 10SM CLR 28/05 A3003 RMK AO2
KPAN 202235Z AUTO 31009G16KT 10SM CLR 28/04 A3003 RMK AO2
KPAN 202215Z AUTO 32009G16KT 280V340 10SM CLR 28/05 A3003 RMK AO2
KPAN 202155Z AUTO 28006G14KT 10SM CLR 28/05 A3003 RMK AO2
KPAN 202135Z AUTO 26008KT 220V290 5SM HZ CLR 28/06 A3003 RMK AO2
KPAN 202115Z AUTO 29010KT 10SM CLR 28/06 A3004 RMK AO2
KPAN 202055Z AUTO 24008KT 10SM CLR 27/06 A3004 RMK AO2
KPAN 202035Z AUTO 29008G17KT 250V310 10SM CLR 28/07 A3004 RMK AO2
KPAN 202015Z AUTO 24012G17KT 10SM CLR 27/08 A3005 RMK AO2
KPAN 201955Z AUTO 23007G12KT 10SM CLR 27/09 A3005 RMK AO2
KPAN 201935Z AUTO 28007G13KT 240V300 10SM CLR 27/09 A3006 RMK AO2
KPAN 201915Z AUTO VRB05G11KT 10SM CLR 27/07 A3006 RMK AO2
KPAN 201855Z AUTO 26007KT 210V280 10SM CLR 26/09 A3006 RMK AO2
KPAN 201835Z AUTO 25008KT 10SM CLR 26/10 A3006 RMK AO2
KPAN 201815Z AUTO 26007KT 230V290 10SM CLR 26/11 A3007 RMK AO2
KPAN 201755Z AUTO 25004KT 10SM CLR 25/11 A3007 RMK AO2
KPAN 201735Z AUTO 24006KT 10SM CLR 24/11 A3007 RMK AO2
KPAN 201715Z AUTO 23005KT 10SM CLR 24/11 A3007 RMK AO2
KPAN 201655Z AUTO VRB05KT 10SM CLR 23/11 A3007 RMK AO2
KPAN 201635Z AUTO VRB04KT 10SM CLR 22/12 A3007 RMK AO2
KPAN 201615Z AUTO VRB04KT 10SM CLR 22/12 A3007 RMK AO2
KPAN 201555Z AUTO 00000KT 10SM CLR 21/13 A3006 RMK AO2
KPAN 201535Z AUTO 00000KT 10SM CLR 20/13 A3006 RMK AO2
KPAN 201515Z AUTO 00000KT 10SM CLR 19/13 A3005 RMK AO2
KPAN 201455Z AUTO 00000KT 10SM CLR 18/12 A3005 RMK AO2
KPAN 201435Z AUTO 00000KT 10SM CLR 17/12 A3005 RMK AO2
KPAN 201415Z AUTO 00000KT 10SM CLR 16/12 A3004 RMK AO2
KPAN 201355Z AUTO 00000KT 10SM CLR 15/11 A3004 RMK AO2
KPAN 201335Z AUTO 00000KT 10SM CLR 14/11 A3003 RMK AO2
KPAN 201315Z AUTO 00000KT 10SM CLR 14/11 A3002 RMK AO2
KPAN 201255Z AUTO 00000KT 10SM CLR 14/11 A3002 RMK AO2
KPAN 201235Z AUTO 00000KT 10SM CLR 13/11 A3002 RMK AO2
KPAN 201215Z AUTO 00000KT 10SM SCT065 13/11 A3001 RMK AO2
KPAN 201155Z AUTO 00000KT 10SM SCT065 14/11 A3001 RMK AO2
KPAN 201135Z AUTO 00000KT 10SM CLR 14/11 A3000 RMK AO2
KPAN 201115Z AUTO 00000KT 10SM FEW070 14/12 A3000 RMK AO2
KPAN 201055Z AUTO 00000KT 10SM CLR 14/12 A3000 RMK AO2
KPAN 201035Z AUTO 00000KT 10SM CLR 14/12 A3000 RMK AO2
KPAN 201015Z AUTO 00000KT 10SM CLR 14/13 A3000 RMK AO2
KPAN 200955Z AUTO 00000KT 10SM CLR 14/13 A3000 RMK AO2
KPAN 200935Z AUTO 00000KT 10SM CLR 14/13 A3000 RMK AO2
KPAN 200915Z AUTO 00000KT 10SM SCT046 15/13 A3000 RMK AO2
KPAN 200855Z AUTO 00000KT 10SM BKN047 15/13 A3000 RMK AO2
KPAN 200835Z AUTO 00000KT 10SM CLR 15/13 A3000 RMK AO2
KPAN 200815Z AUTO 00000KT 10SM CLR 15/13 A3000 RMK AO2
KPAN 200755Z AUTO 00000KT 10SM CLR 15/13 A3000 RMK AO2
KPAN 200735Z AUTO 34003KT 10SM CLR 15/14 A2999 RMK AO2
KPAN 200715Z AUTO 00000KT 10SM CLR 15/14 A3000 RMK AO2
KPAN 200655Z AUTO 00000KT 10SM CLR 15/14 A3000 RMK AO2
KPAN 200635Z AUTO 00000KT 10SM CLR 15/14 A3000 RMK AO2
KPAN 200615Z AUTO 00000KT 10SM CLR 16/14 A3001 RMK AO2
KPAN 200555Z AUTO 03004KT 10SM CLR 16/14 A3001 RMK AO2
KPAN 200535Z AUTO 05003KT 10SM CLR 16/14 A3002 RMK AO2
KPAN 200515Z AUTO 00000KT 10SM CLR 16/14 A3003 RMK AO2
KPAN 200455Z AUTO 00000KT 10SM CLR 16/14 A3004 RMK AO2
KPAN 200435Z AUTO 00000KT 10SM CLR 16/14 A3004 RMK AO2
KPAN 200415Z AUTO 00000KT 10SM CLR 17/14 A3003 RMK AO2